FW2359 Weather Reports


Display with metric or nautical units.
time (UTC)temp
F
wind
direction
speed
MPH
gust
MPH
rain 1hr
in
rain 24hr
in
rain mn
in
humidity
%
barometer
mb
20200402064847 36 215 3.0 0.0 0.00 0.02 0.02 85 1.0
20200402063029 36 201 3.0 0.0 0.00 0.02 0.02 84 1.0
20200402061559 37 195 2.0 0.0 0.00 0.02 0.02 82 1.0
20200402060024 39 234 4.0 0.0 0.00 0.02 0.00 82 1.0
20200402054525 39 265 5.0 0.0 0.00 0.02 0.02 82 1.0
20200402053023 39 251 4.0 0.0 0.00 0.03 0.02 81 1.0
20200402051526 41 256 6.0 0.0 0.00 0.04 0.02 80 1.0
20200402050025 41 268 8.0 0.0 0.00 0.05 0.02 80 1.0
20200402044525 41 255 8.0 0.0 0.00 0.05 0.02 80 1.0
20200402043026 41 248 6.0 0.0 0.00 0.05 0.02 79 1.0
20200402040024 40 240 5.0 0.0 0.00 0.05 0.02 77 1.0
20200402034526 42 241 7.0 0.0 0.00 0.05 0.02 76 1.0
20200402033025 42 246 8.0 0.0 0.00 0.05 0.02 74 1.0
20200402031527 42 246 8.0 0.0 0.00 0.05 0.02 74 1.0
20200402030028 42 237 6.0 0.0 0.00 0.05 0.02 73 1.0
20200402024523 43 241 7.0 0.0 0.00 0.05 0.02 71 1.0
20200402023023 44 242 6.0 0.0 0.00 0.05 0.02 69 1.0
20200402021535 45 260 8.0 0.0 0.00 0.05 0.02 69 1.0
20200402020023 45 265 10.0 0.0 0.00 0.05 0.02 70 1.0
20200402014527 46 264 12.0 0.0 0.00 0.05 0.02 69 1.0
20200402013025 46 264 12.0 0.0 0.00 0.06 0.02 67 1.0
20200402011526 47 263 12.0 0.0 0.00 0.06 0.02 64 1.0
20200402010023 48 265 12.0 0.0 0.00 0.06 0.02 62 1.0
20200402004525 49 246 10.0 0.0 0.00 0.06 0.02 61 1.0
20200402003025 49 256 10.0 0.0 0.00 0.06 0.02 62 1.0
20200402001527 49 257 10.0 0.0 0.00 0.06 0.02 63 1.0
20200402000314 48 256 10.0 0.0 0.00 0.06 0.02 62 1.0
20200401234521 48 256 11.0 0.0 0.00 0.06 0.02 62 1.0
20200401233024 48 264 11.0 0.0 0.00 0.06 0.02 63 1.0
20200401231541 47 266 9.0 0.0 0.00 0.06 0.02 65 1.0
20200401224529 45 249 8.0 0.0 0.00 0.06 0.02 69 1.0
20200401223027 44 260 10.0 0.0 0.00 0.06 0.02 69 1.0
20200401221528 45 267 11.0 0.0 0.00 0.06 0.02 67 1.0
20200401220033 49 268 11.0 0.0 0.00 0.06 0.02 61 1.0
20200401214524 49 256 13.0 0.0 0.00 0.06 0.02 59 1.0
20200401213054 49 264 12.0 0.0 0.00 0.06 0.02 61 1.0
20200401211525 48 261 10.0 0.0 0.00 0.06 0.02 63 1.0
20200401210025 48 264 10.0 0.0 0.00 0.06 0.02 65 1.0
20200401204525 47 264 11.0 0.0 0.00 0.06 0.02 65 1.0
20200401203025 47 265 10.0 0.0 0.00 0.06 0.02 66 1.0
20200401201526 47 265 11.0 0.0 0.00 0.06 0.02 68 1.0
20200401200036 46 265 9.0 0.0 0.00 0.06 0.02 71 1.0
20200401194529 45 269 9.0 0.0 0.00 0.06 0.02 72 1.0
20200401193024 45 262 10.0 0.0 0.00 0.06 0.02 76 1.0
20200401191532 44 266 9.0 0.0 0.00 0.06 0.02 78 1.0
20200401190027 43 259 9.0 0.0 0.00 0.06 0.02 80 1.0
20200401184534 43 268 7.0 0.0 0.00 0.06 0.02 81 1.0
20200401183026 43 263 5.0 0.0 0.00 0.06 0.02 83 1.0
20200401181523 43 241 6.0 0.0 0.00 0.06 0.02 85 1.0
20200401180025 40 229 2.0 0.0 0.00 0.06 0.02 88 1.0
20200401174525 39 275 3.0 0.0 0.00 0.06 0.02 89 1.0
20200401173027 39 258 4.0 0.0 0.01 0.06 0.02 90 1.0
20200401171527 38 241 4.0 0.0 0.01 0.07 0.02 91 1.0
20200401170024 37 270 1.0 0.0 0.01 0.07 0.02 91 1.0
20200401164525 37 278 2.0 0.0 0.01 0.07 0.02 91 1.0
20200401163024 38 285 4.0 0.0 0.00 0.06 0.01 91 1.0
20200401161526 37 290 1.0 0.0 0.00 0.07 0.01 91 1.0
20200401160029 36 112 1.0 0.0 0.00 0.10 0.01 92 1.0
20200401154525 36 116 2.0 0.0 0.00 0.14 0.01 92 1.0
20200401153025 35 153 2.0 0.0 0.00 0.16 0.01 92 1.0
20200401151526 35 157 0.0 0.0 0.00 0.17 0.01 92 1.0
20200401150025 35 157 0.0 0.0 0.00 0.17 0.01 92 1.0
20200401144525 34 157 5.0 0.0 0.01 0.18 0.01 92 1.0
20200401143026 34 144 4.0 0.0 0.01 0.19 0.01 92 1.0
20200401141527 34 137 0.0 0.0 0.01 0.20 0.01 92 1.0
20200401140026 34 135 0.0 0.0 0.01 0.20 0.01 92 1.0
20200401134526 33 135 0.0 0.0 0.00 0.19 0.00 92 1.0
20200401133024 33 142 2.0 0.0 0.00 0.19 0.00 92 1.0
20200401131528 33 147 2.0 0.0 0.00 0.19 0.00 92 1.0
20200401130025 33 150 4.0 0.0 0.00 0.19 0.00 92 1.0
20200401124527 33 149 5.0 0.0 0.00 0.19 0.00 92 1.0
20200401123025 33 136 5.0 0.0 0.00 0.19 0.00 92 1.0
20200401121526 33 107 2.0 0.0 0.00 0.20 0.00 92 1.0
20200401120024 32 135 5.0 0.0 0.00 0.22 0.00 92 1.0
20200401114526 33 95 3.0 0.0 0.00 0.22 0.00 92 1.0
20200401113025 32 163 5.0 0.0 0.00 0.22 0.00 92 1.0
20200401111526 33 170 3.0 0.0 0.00 0.22 0.00 92 1.0
20200401110024 33 200 2.0 0.0 0.00 0.23 0.00 92 1.0
20200401104525 33 143 3.0 0.0 0.00 0.23 0.00 92 1.0
20200401103025 33 239 1.0 0.0 0.00 0.23 0.00 92 1.0
20200401101525 32 196 2.0 0.0 0.00 0.24 0.00 92 1.0
20200401100023 32 155 3.0 0.0 0.00 0.24 0.00 92 1.0
20200401094526 32 157 3.0 0.0 0.00 0.25 0.00 92 1.0
20200401093024 32 157 5.0 0.0 0.00 0.25 0.00 92 1.0
20200401090026 33 185 3.0 0.0 0.00 0.26 0.00 91 1.0
20200401084523 34 161 4.0 0.0 0.00 0.26 0.00 91 1.0
20200401083024 35 148 5.0 0.0 0.00 0.26 0.00 90 1.0
20200401081527 36 230 4.0 0.0 0.00 0.26 0.00 90 1.0
20200401080021 36 292 0.0 0.0 0.00 0.27 0.00 91 1.0
20200401074526 36 270 1.0 0.0 0.00 0.27 0.00 91 1.0
20200401073024 36 241 4.0 0.0 0.00 0.27 0.00 91 1.0
20200401071525 35 220 4.0 0.0 0.00 0.28 0.00 91 1.0
20200401070026 36 175 3.0 0.0 0.00 0.28 0.00 91 1.0